createdAt,value
2016-12-27T00:00:11.534Z,280
2016-12-27T00:01:11.623Z,281
2016-12-27T00:02:11.714Z,281
2016-12-27T00:03:11.843Z,277
2016-12-27T00:04:11.945Z,277
2016-12-27T00:05:12.116Z,278
2016-12-27T00:06:12.199Z,278
2016-12-27T00:07:12.301Z,279
2016-12-27T00:08:12.374Z,280
2016-12-27T00:09:12.468Z,279
2016-12-27T00:10:12.571Z,280
2016-12-27T00:11:12.675Z,279
2016-12-27T00:12:12.774Z,280
2016-12-27T00:13:12.891Z,280
2016-12-27T00:14:12.985Z,280
2016-12-27T00:15:13.084Z,280
2016-12-27T00:16:13.213Z,280
2016-12-27T00:17:13.306Z,280
2016-12-27T00:18:13.449Z,281
2016-12-27T00:19:13.535Z,280
2016-12-27T00:20:13.659Z,280
2016-12-27T00:21:13.749Z,281
2016-12-27T00:22:13.827Z,281
2016-12-27T00:23:13.919Z,281
2016-12-27T00:24:14.041Z,280
2016-12-27T00:25:14.119Z,281
2016-12-27T00:26:14.232Z,280
2016-12-27T00:27:14.371Z,281
2016-12-27T00:28:14.508Z,281
2016-12-27T00:29:14.666Z,281
2016-12-27T00:30:14.777Z,281
2016-12-27T00:31:14.871Z,281
2016-12-27T00:32:14.976Z,281
2016-12-27T00:33:15.098Z,281
2016-12-27T00:34:15.248Z,281
2016-12-27T00:35:15.328Z,281
2016-12-27T00:36:15.419Z,281
2016-12-27T00:37:15.504Z,281
2016-12-27T00:38:15.620Z,281
2016-12-27T00:39:15.763Z,280
2016-12-27T00:40:15.850Z,281
2016-12-27T00:41:15.986Z,280
2016-12-27T00:42:16.069Z,281
2016-12-27T00:43:16.190Z,281
2016-12-27T00:44:16.277Z,281
2016-12-27T00:45:16.351Z,281
2016-12-27T00:46:16.448Z,281
2016-12-27T00:47:16.565Z,281
2016-12-27T00:48:16.672Z,281
2016-12-27T00:49:16.781Z,281
2016-12-27T00:50:16.857Z,281
2016-12-27T00:51:16.999Z,281
2016-12-27T00:52:17.125Z,281
2016-12-27T00:53:17.215Z,281
2016-12-27T00:54:17.336Z,281
2016-12-27T00:55:17.426Z,281
2016-12-27T00:56:17.555Z,281
2016-12-27T00:57:17.657Z,281
2016-12-27T00:58:17.769Z,282
2016-12-27T00:59:17.847Z,282
2016-12-27T01:00:17.969Z,282
2016-12-27T01:01:18.089Z,282
2016-12-27T01:02:18.188Z,282
2016-12-27T01:03:18.338Z,282
2016-12-27T01:04:18.451Z,282
2016-12-27T01:05:18.574Z,282
2016-12-27T01:06:18.679Z,282
2016-12-27T01:07:18.829Z,282
2016-12-27T01:08:18.932Z,282
2016-12-27T01:09:19.014Z,282
2016-12-27T01:10:19.157Z,282
2016-12-27T01:11:19.267Z,282
2016-12-27T01:12:19.378Z,282
2016-12-27T01:13:19.487Z,282
2016-12-27T01:14:19.572Z,282
2016-12-27T01:15:19.645Z,282
2016-12-27T01:16:19.747Z,282
2016-12-27T01:17:19.850Z,282
2016-12-27T01:18:19.923Z,283
2016-12-27T01:19:20.016Z,282
2016-12-27T01:20:20.138Z,282
2016-12-27T01:21:20.243Z,282
2016-12-27T01:22:21.018Z,282
2016-12-27T01:23:21.099Z,282
2016-12-27T01:24:21.179Z,282
2016-12-27T01:25:21.301Z,283
2016-12-27T01:26:21.425Z,282
2016-12-27T01:27:21.503Z,282
2016-12-27T01:28:21.603Z,282
2016-12-27T01:29:21.719Z,282
2016-12-27T01:30:21.831Z,282
2016-12-27T01:31:21.909Z,282
2016-12-27T01:32:22.026Z,282
2016-12-27T01:33:22.101Z,282
2016-12-27T01:34:22.279Z,282
2016-12-27T01:35:22.384Z,282
2016-12-27T01:36:22.535Z,282
2016-12-27T01:37:22.622Z,283
2016-12-27T01:38:22.690Z,282
2016-12-27T01:39:22.799Z,282
2016-12-27T01:40:22.905Z,282
2016-12-27T01:41:23.025Z,282
2016-12-27T01:42:23.120Z,282
2016-12-27T01:43:23.195Z,282
2016-12-27T01:44:23.306Z,283
2016-12-27T01:45:23.407Z,282
2016-12-27T01:46:23.518Z,281
2016-12-27T01:47:23.604Z,282
2016-12-27T01:48:23.686Z,282
2016-12-27T01:49:23.812Z,282
2016-12-27T01:50:23.978Z,282
2016-12-27T01:51:24.065Z,282
2016-12-27T01:52:24.137Z,282
2016-12-27T01:53:24.248Z,282
2016-12-27T01:54:24.351Z,282
2016-12-27T01:55:24.448Z,282
2016-12-27T01:56:24.563Z,282
2016-12-27T01:57:24.652Z,283
2016-12-27T01:58:24.749Z,282
2016-12-27T01:59:24.887Z,282
2016-12-27T02:00:24.970Z,283
2016-12-27T02:01:25.066Z,282
2016-12-27T02:02:25.180Z,282
2016-12-27T02:03:25.281Z,282
2016-12-27T02:04:25.399Z,283
2016-12-27T02:05:25.605Z,282
2016-12-27T02:06:25.675Z,282
2016-12-27T02:07:25.748Z,283
2016-12-27T02:08:25.828Z,282
2016-12-27T02:09:25.904Z,283
2016-12-27T02:10:26.901Z,282
2016-12-27T02:11:26.122Z,283
2016-12-27T02:12:26.237Z,282
2016-12-27T02:13:26.481Z,283
2016-12-27T02:14:26.620Z,283
2016-12-27T02:15:26.723Z,283
2016-12-27T02:16:26.848Z,283
2016-12-27T02:17:26.955Z,283
2016-12-27T02:18:27.107Z,283
2016-12-27T02:19:27.202Z,283
2016-12-27T02:20:27.291Z,283
2016-12-27T02:21:27.366Z,283
2016-12-27T02:22:27.448Z,283
2016-12-27T02:23:27.524Z,283
2016-12-27T02:24:27.655Z,283
2016-12-27T02:25:27.761Z,283
2016-12-27T02:26:27.906Z,283
2016-12-27T02:27:28.043Z,283
2016-12-27T02:28:28.115Z,283
2016-12-27T02:29:28.232Z,283
2016-12-27T02:30:28.365Z,283
2016-12-27T02:31:28.480Z,283
2016-12-27T02:32:28.590Z,282
2016-12-27T02:33:28.660Z,283
2016-12-27T02:34:28.764Z,283
2016-12-27T02:35:28.879Z,283
2016-12-27T02:36:28.968Z,283
2016-12-27T02:37:29.061Z,283
2016-12-27T02:38:29.163Z,283
2016-12-27T02:39:29.287Z,283
2016-12-27T02:40:29.378Z,283
2016-12-27T02:41:29.483Z,283
2016-12-27T02:42:29.572Z,283
2016-12-27T02:43:29.654Z,283
2016-12-27T02:44:29.770Z,283
2016-12-27T02:45:29.859Z,283
2016-12-27T02:46:29.981Z,283
2016-12-27T02:47:30.088Z,282
2016-12-27T02:48:30.166Z,283
2016-12-27T02:49:30.294Z,283
2016-12-27T02:50:30.395Z,283
2016-12-27T02:51:30.485Z,283
2016-12-27T02:52:30.550Z,283
2016-12-27T02:53:30.636Z,283
2016-12-27T02:54:30.732Z,284
2016-12-27T02:55:30.833Z,283
2016-12-27T02:56:30.923Z,283
2016-12-27T02:57:31.038Z,283
2016-12-27T02:58:31.107Z,283
2016-12-27T02:59:31.262Z,283
2016-12-27T03:00:31.358Z,283
2016-12-27T03:01:31.449Z,283
2016-12-27T03:02:31.548Z,283
2016-12-27T03:03:31.634Z,283
2016-12-27T03:04:31.725Z,283
2016-12-27T03:05:31.822Z,283
2016-12-27T03:06:31.912Z,283
2016-12-27T03:07:31.999Z,283
2016-12-27T03:08:32.124Z,283
2016-12-27T03:09:32.235Z,283
2016-12-27T03:10:32.355Z,283
2016-12-27T03:11:32.472Z,283
2016-12-27T03:12:32.566Z,283
2016-12-27T03:13:32.693Z,283
2016-12-27T03:14:32.775Z,283
2016-12-27T03:15:32.907Z,283
2016-12-27T03:16:32.980Z,283
2016-12-27T03:17:33.101Z,283
2016-12-27T03:18:33.179Z,283
2016-12-27T03:19:33.305Z,283
2016-12-27T03:20:33.374Z,283
2016-12-27T03:21:33.457Z,283
2016-12-27T03:22:33.575Z,283
2016-12-27T03:23:33.746Z,283
2016-12-27T03:24:33.853Z,283
2016-12-27T03:25:33.934Z,283
2016-12-27T03:26:34.030Z,284
2016-12-27T03:27:34.141Z,283
2016-12-27T03:28:34.310Z,283
2016-12-27T03:29:34.440Z,283
2016-12-27T03:30:34.542Z,283
2016-12-27T03:31:34.636Z,283
2016-12-27T03:32:34.714Z,283
2016-12-27T03:33:34.813Z,283
2016-12-27T03:34:34.891Z,283
2016-12-27T03:35:34.997Z,283
2016-12-27T03:36:35.102Z,284
2016-12-27T03:37:35.192Z,283
2016-12-27T03:38:35.279Z,283
2016-12-27T03:39:35.386Z,283
2016-12-27T03:40:35.486Z,283
2016-12-27T03:41:35.564Z,283
2016-12-27T03:42:35.671Z,283
2016-12-27T03:43:35.769Z,284
2016-12-27T03:44:35.885Z,283
2016-12-27T03:45:35.984Z,283
2016-12-27T03:46:36.061Z,283
2016-12-27T03:47:36.149Z,283
2016-12-27T03:48:36.282Z,283
2016-12-27T03:49:36.370Z,283
2016-12-27T03:50:36.513Z,283
2016-12-27T03:51:36.768Z,283
2016-12-27T03:52:36.858Z,283
2016-12-27T03:53:36.965Z,283
2016-12-27T03:54:37.061Z,283
2016-12-27T03:55:37.181Z,284
2016-12-27T03:56:37.305Z,283
2016-12-27T03:57:37.434Z,283
2016-12-27T03:58:37.522Z,283
2016-12-27T03:59:38.553Z,283
2016-12-27T04:00:38.692Z,283
2016-12-27T04:01:38.811Z,283
2016-12-27T04:02:38.902Z,283
2016-12-27T04:03:39.016Z,283
2016-12-27T04:04:39.138Z,283
2016-12-27T04:05:39.247Z,283
2016-12-27T04:06:39.334Z,283
2016-12-27T04:07:39.423Z,283
2016-12-27T04:08:39.509Z,283
2016-12-27T04:09:39.603Z,283
2016-12-27T04:10:39.702Z,283
2016-12-27T04:11:39.805Z,283
2016-12-27T04:12:39.950Z,283
2016-12-27T04:13:40.065Z,283
2016-12-27T04:14:40.150Z,283
2016-12-27T04:15:40.250Z,283
2016-12-27T04:16:40.340Z,283
2016-12-27T04:17:40.440Z,283
2016-12-27T04:18:40.536Z,283
2016-12-27T04:19:40.646Z,283
2016-12-27T04:20:40.803Z,283
2016-12-27T04:21:40.891Z,282
2016-12-27T04:22:40.980Z,283
2016-12-27T04:23:41.062Z,283
2016-12-27T04:24:41.145Z,283
2016-12-27T04:25:41.248Z,283
2016-12-27T04:26:41.322Z,283
2016-12-27T04:27:41.438Z,283
2016-12-27T04:28:41.554Z,283
2016-12-27T04:29:41.676Z,283
2016-12-27T04:30:41.779Z,283
2016-12-27T04:31:41.898Z,283
2016-12-27T04:32:41.975Z,283
2016-12-27T04:33:42.064Z,283
2016-12-27T04:34:42.225Z,283
2016-12-27T04:35:42.301Z,283
2016-12-27T04:36:42.403Z,282
2016-12-27T04:37:42.466Z,283
2016-12-27T04:38:42.608Z,283
2016-12-27T04:39:42.737Z,283
2016-12-27T04:40:42.848Z,283
2016-12-27T04:41:43.429Z,283
2016-12-27T04:42:43.020Z,283
2016-12-27T04:43:43.127Z,283
2016-12-27T04:44:43.230Z,283
2016-12-27T04:45:43.327Z,283
2016-12-27T04:46:43.448Z,283
2016-12-27T04:47:43.514Z,283
2016-12-27T04:48:43.653Z,283
2016-12-27T04:49:43.760Z,283
2016-12-27T04:50:43.847Z,286
2016-12-27T04:51:43.954Z,289
2016-12-27T04:52:44.021Z,294
2016-12-27T04:53:44.107Z,294
2016-12-27T04:54:44.266Z,293
2016-12-27T04:55:44.361Z,293
2016-12-27T04:56:44.452Z,293
2016-12-27T04:57:44.638Z,293
2016-12-27T04:58:44.792Z,292
2016-12-27T04:59:44.882Z,291
2016-12-27T05:00:45.075Z,291
2016-12-27T05:01:45.181Z,291
2016-12-27T05:02:45.251Z,290
2016-12-27T05:03:45.321Z,290
2016-12-27T05:04:45.438Z,289
2016-12-27T05:05:45.537Z,289
2016-12-27T05:06:45.734Z,289
2016-12-27T05:07:45.831Z,288
2016-12-27T05:08:45.977Z,288
2016-12-27T05:09:46.076Z,288
2016-12-27T05:10:46.199Z,287
2016-12-27T05:11:46.330Z,287
2016-12-27T05:12:46.389Z,287
2016-12-27T05:13:46.487Z,289
2016-12-27T05:14:46.581Z,291
2016-12-27T05:15:46.694Z,294
2016-12-27T05:16:46.781Z,298
2016-12-27T05:17:46.864Z,301
2016-12-27T05:18:46.968Z,299
2016-12-27T05:19:47.067Z,298
2016-12-27T05:20:47.190Z,298
2016-12-27T05:21:47.473Z,299
2016-12-27T05:22:48.437Z,302
2016-12-27T05:23:47.709Z,302
2016-12-27T05:24:47.819Z,302
2016-12-27T05:25:48.083Z,301
2016-12-27T05:26:48.226Z,300
2016-12-27T05:27:48.305Z,299
2016-12-27T05:28:48.428Z,298
2016-12-27T05:29:48.632Z,298
2016-12-27T05:30:48.745Z,298
2016-12-27T05:31:48.846Z,297
2016-12-27T05:32:48.971Z,297
2016-12-27T05:33:49.063Z,296
2016-12-27T05:34:49.188Z,300
2016-12-27T05:35:49.286Z,299
2016-12-27T05:36:49.362Z,298
2016-12-27T05:37:49.456Z,314
2016-12-27T05:38:49.580Z,352
2016-12-27T05:39:49.680Z,372
2016-12-27T05:40:49.779Z,366
2016-12-27T05:41:49.901Z,375
2016-12-27T05:42:49.984Z,359
2016-12-27T05:43:50.103Z,348
2016-12-27T05:44:50.237Z,343
2016-12-27T05:45:50.347Z,341
2016-12-27T05:46:50.453Z,338
2016-12-27T05:47:50.550Z,337
2016-12-27T05:48:50.632Z,335
2016-12-27T05:49:50.755Z,408
2016-12-27T05:50:50.856Z,433
2016-12-27T05:51:50.975Z,451
2016-12-27T05:52:51.104Z,449
2016-12-27T05:53:51.235Z,450
2016-12-27T05:54:51.362Z,451
2016-12-27T05:55:51.454Z,457
2016-12-27T05:56:51.547Z,451
2016-12-27T05:57:51.622Z,450
2016-12-27T05:58:51.803Z,446
2016-12-27T05:59:51.907Z,438
2016-12-27T06:00:52.034Z,432
2016-12-27T06:01:52.097Z,427
2016-12-27T06:02:52.182Z,424
2016-12-27T06:03:52.293Z,419
2016-12-27T06:04:52.428Z,415
2016-12-27T06:05:52.531Z,411
2016-12-27T06:06:52.648Z,410
2016-12-27T06:07:52.755Z,406
2016-12-27T06:08:52.852Z,403
2016-12-27T06:09:52.941Z,401
2016-12-27T06:10:53.015Z,400
2016-12-27T06:11:53.128Z,396
2016-12-27T06:12:53.253Z,395
2016-12-27T06:13:53.354Z,394
2016-12-27T06:14:53.488Z,827
2016-12-27T06:15:53.566Z,832
2016-12-27T06:16:53.655Z,828
2016-12-27T06:17:53.770Z,827
2016-12-27T06:18:53.897Z,826
2016-12-27T06:19:54.006Z,824
2016-12-27T06:20:54.099Z,821
2016-12-27T06:21:54.174Z,445
2016-12-27T06:22:54.340Z,750
2016-12-27T06:23:54.462Z,771
2016-12-27T06:24:54.592Z,765
2016-12-27T06:25:54.682Z,761
2016-12-27T06:26:54.893Z,757
2016-12-27T06:27:55.032Z,748
2016-12-27T06:28:55.278Z,723
2016-12-27T06:29:55.381Z,724
2016-12-27T06:30:55.480Z,739
2016-12-27T06:31:55.564Z,749
2016-12-27T06:32:55.652Z,760
2016-12-27T06:33:55.737Z,759
2016-12-27T06:34:55.848Z,758
2016-12-27T06:35:55.956Z,745
2016-12-27T06:36:56.093Z,750
2016-12-27T06:37:56.177Z,735
2016-12-27T06:38:56.345Z,680
2016-12-27T06:39:56.460Z,839
2016-12-27T06:40:56.571Z,837
2016-12-27T06:41:56.659Z,838
2016-12-27T06:42:56.817Z,838
2016-12-27T06:43:56.892Z,837
2016-12-27T06:44:57.005Z,834
2016-12-27T06:45:57.102Z,831
2016-12-27T06:46:57.182Z,829
2016-12-27T06:47:57.284Z,829
2016-12-27T06:48:57.423Z,828
2016-12-27T06:49:57.503Z,827
2016-12-27T06:50:57.607Z,828
2016-12-27T06:51:57.715Z,831
2016-12-27T06:52:57.852Z,831
2016-12-27T06:53:57.953Z,830
2016-12-27T06:54:58.058Z,837
2016-12-27T06:55:58.168Z,838
2016-12-27T06:56:58.263Z,839
2016-12-27T06:57:58.457Z,839
2016-12-27T06:58:58.571Z,840
2016-12-27T06:59:58.671Z,842
2016-12-27T07:00:58.792Z,844
2016-12-27T07:01:58.972Z,847
2016-12-27T07:02:59.061Z,847
2016-12-27T07:03:59.166Z,845
2016-12-27T07:04:59.251Z,799
2016-12-27T07:05:59.325Z,817
2016-12-27T07:06:59.473Z,800
2016-12-27T07:07:59.545Z,802
2016-12-27T07:08:59.639Z,838
2016-12-27T07:09:59.755Z,838
2016-12-27T07:10:59.906Z,837
2016-12-27T07:11:59.995Z,837
2016-12-27T07:13:00.168Z,819
2016-12-27T07:14:00.291Z,828
2016-12-27T07:15:00.416Z,831
2016-12-27T07:16:00.504Z,834
2016-12-27T07:17:00.581Z,786
2016-12-27T07:18:00.694Z,835
2016-12-27T07:19:00.876Z,834
2016-12-27T07:20:00.955Z,832
2016-12-27T07:21:01.066Z,807
2016-12-27T07:22:01.155Z,820
2016-12-27T07:23:01.287Z,817
2016-12-27T07:24:01.394Z,785
2016-12-27T07:25:01.501Z,772
2016-12-27T07:26:01.612Z,790
2016-12-27T07:27:01.723Z,817
2016-12-27T07:28:01.878Z,815
2016-12-27T07:29:01.990Z,829
2016-12-27T07:30:02.125Z,829
2016-12-27T07:31:02.240Z,828
2016-12-27T07:32:02.343Z,828
2016-12-27T07:33:02.413Z,827
2016-12-27T07:34:02.511Z,826
2016-12-27T07:35:02.615Z,825
2016-12-27T07:36:02.697Z,824
2016-12-27T07:37:02.880Z,821
2016-12-27T07:38:03.011Z,834
2016-12-27T07:39:03.114Z,809
2016-12-27T07:40:03.307Z,466
2016-12-27T07:41:03.422Z,413
2016-12-27T07:42:03.501Z,409
2016-12-27T07:43:03.613Z,406
2016-12-27T07:44:03.714Z,400
2016-12-27T07:45:03.826Z,397
2016-12-27T07:46:03.952Z,394
2016-12-27T07:47:04.048Z,404
2016-12-27T07:48:04.151Z,715
2016-12-27T07:49:04.308Z,706
2016-12-27T07:50:04.412Z,728
2016-12-27T07:51:04.520Z,738
2016-12-27T07:52:05.554Z,738
2016-12-27T07:53:05.631Z,741
2016-12-27T07:54:05.708Z,754
2016-12-27T07:55:05.795Z,753
2016-12-27T07:56:05.917Z,752
2016-12-27T07:57:06.004Z,749
2016-12-27T07:58:06.107Z,747
2016-12-27T07:59:06.238Z,747
2016-12-27T08:00:06.369Z,744
2016-12-27T08:01:06.441Z,742
2016-12-27T08:02:06.564Z,740
2016-12-27T08:03:06.694Z,738
2016-12-27T08:04:06.824Z,735
2016-12-27T08:05:06.901Z,732
2016-12-27T08:06:07.975Z,730
2016-12-27T08:07:07.586Z,729
2016-12-27T08:08:07.725Z,725
2016-12-27T08:09:07.884Z,727
2016-12-27T08:10:07.998Z,727
2016-12-27T08:11:08.149Z,730
2016-12-27T08:12:08.259Z,726
2016-12-27T08:13:08.379Z,672
2016-12-27T08:14:08.465Z,682
2016-12-27T08:15:08.574Z,682
2016-12-27T08:16:08.660Z,678
2016-12-27T08:17:08.795Z,676
2016-12-27T08:18:08.903Z,638
2016-12-27T08:19:08.994Z,637
2016-12-27T08:20:09.088Z,618
2016-12-27T08:21:09.171Z,897
2016-12-27T08:22:09.249Z,899
2016-12-27T08:23:09.367Z,898
2016-12-27T08:24:09.501Z,898
2016-12-27T08:25:09.631Z,897
2016-12-27T08:26:09.758Z,897
2016-12-27T08:27:09.892Z,896
2016-12-27T08:28:09.993Z,896
2016-12-27T08:29:10.087Z,895
2016-12-27T08:30:10.192Z,895
2016-12-27T08:31:10.304Z,895
2016-12-27T08:32:10.510Z,894
2016-12-27T08:33:10.624Z,894
2016-12-27T08:34:10.757Z,893
2016-12-27T08:35:10.875Z,893
2016-12-27T08:36:11.485Z,892
2016-12-27T08:37:11.028Z,892
2016-12-27T08:38:11.195Z,891
2016-12-27T08:39:11.303Z,891
2016-12-27T08:40:11.406Z,891
2016-12-27T08:41:11.494Z,890
2016-12-27T08:42:11.582Z,890
2016-12-27T08:43:11.660Z,889
2016-12-27T08:44:11.773Z,888
2016-12-27T08:45:11.867Z,873
2016-12-27T08:46:11.976Z,870
2016-12-27T08:47:13.498Z,867
2016-12-27T08:48:12.726Z,871
2016-12-27T08:49:12.832Z,870
2016-12-27T08:50:12.931Z,870
2016-12-27T08:51:13.068Z,872
2016-12-27T08:52:13.133Z,871
2016-12-27T08:53:13.219Z,869
2016-12-27T08:54:13.336Z,870
2016-12-27T08:55:13.443Z,877
2016-12-27T08:56:13.572Z,875
2016-12-27T08:57:13.698Z,876
2016-12-27T08:58:13.823Z,813
2016-12-27T08:59:13.904Z,792
2016-12-27T09:00:14.023Z,802
2016-12-27T09:01:14.138Z,811
2016-12-27T09:02:14.245Z,769
2016-12-27T09:03:14.405Z,784
2016-12-27T09:04:14.512Z,783
2016-12-27T09:05:14.630Z,787
2016-12-27T09:06:14.734Z,786
2016-12-27T09:07:14.795Z,787
2016-12-27T09:08:14.943Z,783
2016-12-27T09:09:15.088Z,786
2016-12-27T09:10:15.189Z,787
2016-12-27T09:11:15.323Z,786
2016-12-27T09:12:15.463Z,785
2016-12-27T09:13:15.625Z,626
2016-12-27T09:14:15.754Z,613
2016-12-27T09:15:15.845Z,623
2016-12-27T09:16:15.987Z,583
2016-12-27T09:17:16.098Z,576
2016-12-27T09:18:16.235Z,565
2016-12-27T09:19:16.332Z,576
2016-12-27T09:20:16.404Z,587
2016-12-27T09:21:16.500Z,702
2016-12-27T09:22:16.593Z,528
2016-12-27T09:23:16.725Z,630
2016-12-27T09:24:16.837Z,777
2016-12-27T09:25:16.950Z,652
2016-12-27T09:26:17.039Z,713
2016-12-27T09:27:17.139Z,702
2016-12-27T09:28:17.269Z,517
2016-12-27T09:29:17.361Z,534
2016-12-27T09:30:17.464Z,509
2016-12-27T09:31:17.583Z,506
2016-12-27T09:32:18.517Z,522
2016-12-27T09:33:18.628Z,517
2016-12-27T09:34:18.778Z,519
2016-12-27T09:35:18.881Z,497
2016-12-27T09:36:19.013Z,510
2016-12-27T09:37:19.186Z,495
2016-12-27T09:38:19.322Z,454
2016-12-27T09:39:19.437Z,396
2016-12-27T09:40:19.534Z,363
2016-12-27T09:41:19.651Z,324
2016-12-27T09:42:19.718Z,315
2016-12-27T09:43:19.866Z,318
2016-12-27T09:44:19.963Z,315
2016-12-27T09:45:20.055Z,310
2016-12-27T09:46:20.153Z,308
2016-12-27T09:47:20.262Z,317
2016-12-27T09:48:20.371Z,301
2016-12-27T09:49:20.514Z,303
2016-12-27T09:50:20.607Z,301
2016-12-27T09:51:20.700Z,306
2016-12-27T09:52:20.865Z,308
2016-12-27T09:53:21.013Z,303
2016-12-27T09:54:21.164Z,303
2016-12-27T09:55:21.268Z,284
2016-12-27T09:56:21.346Z,283
2016-12-27T09:57:21.479Z,282
2016-12-27T09:58:21.607Z,283
2016-12-27T09:59:21.738Z,282
2016-12-27T10:00:21.906Z,282
2016-12-27T10:01:22.035Z,283
2016-12-27T10:02:22.120Z,283
2016-12-27T10:03:22.209Z,282
2016-12-27T10:04:22.335Z,283
2016-12-27T10:05:22.495Z,283
2016-12-27T10:06:22.635Z,283
2016-12-27T10:07:22.756Z,283
2016-12-27T10:08:22.887Z,283
2016-12-27T10:09:23.020Z,283
2016-12-27T10:10:23.119Z,283
2016-12-27T10:11:23.260Z,283
2016-12-27T10:12:23.346Z,283
2016-12-27T10:13:23.460Z,283
2016-12-27T10:14:23.543Z,283
2016-12-27T10:15:23.653Z,283
2016-12-27T10:16:23.752Z,283
2016-12-27T10:17:23.890Z,283
2016-12-27T10:18:24.005Z,283
2016-12-27T10:19:24.100Z,283
2016-12-27T10:20:24.270Z,283
2016-12-27T10:21:24.410Z,283
2016-12-27T10:22:24.495Z,283
2016-12-27T10:23:24.585Z,283
2016-12-27T10:24:24.752Z,283
2016-12-27T10:25:24.910Z,283
2016-12-27T10:26:25.035Z,283
2016-12-27T10:27:25.132Z,283
2016-12-27T10:28:25.251Z,283
2016-12-27T10:29:25.411Z,283
2016-12-27T10:30:25.560Z,283
2016-12-27T10:31:25.700Z,283
2016-12-27T10:32:25.810Z,283
2016-12-27T10:33:25.912Z,283
2016-12-27T10:34:26.022Z,283
2016-12-27T10:35:26.139Z,283
2016-12-27T10:36:26.276Z,283
2016-12-27T10:37:26.432Z,283
2016-12-27T10:38:26.524Z,283
2016-12-27T10:39:26.661Z,283
2016-12-27T10:40:26.749Z,283
2016-12-27T10:41:26.873Z,283
2016-12-27T10:42:26.983Z,283
2016-12-27T10:43:27.072Z,283
2016-12-27T10:44:27.169Z,283
2016-12-27T10:45:27.304Z,283
2016-12-27T10:46:27.417Z,283
2016-12-27T10:47:27.533Z,283
2016-12-27T10:48:27.648Z,283
2016-12-27T10:49:27.787Z,283
2016-12-27T10:50:27.898Z,283
2016-12-27T10:51:28.054Z,283
2016-12-27T10:52:28.159Z,283
2016-12-27T10:53:28.237Z,283
2016-12-27T10:54:28.377Z,283
2016-12-27T10:55:28.507Z,283
2016-12-27T10:56:28.607Z,283
2016-12-27T10:57:28.718Z,283
2016-12-27T10:58:28.859Z,283
2016-12-27T10:59:28.963Z,283
2016-12-27T11:00:29.115Z,283
2016-12-27T11:01:29.337Z,283
2016-12-27T11:02:29.465Z,283
2016-12-27T11:03:29.574Z,283
2016-12-27T11:04:29.717Z,282
2016-12-27T11:05:29.843Z,283
2016-12-27T11:06:30.001Z,283
2016-12-27T11:07:30.107Z,283
2016-12-27T11:08:30.236Z,283
2016-12-27T11:09:30.300Z,283
2016-12-27T11:10:30.437Z,283
2016-12-27T11:11:30.559Z,283
2016-12-27T11:12:30.673Z,283
2016-12-27T11:13:30.745Z,283
2016-12-27T11:14:30.871Z,283
2016-12-27T11:15:30.994Z,283
2016-12-27T11:16:31.084Z,283
2016-12-27T11:17:31.325Z,282
2016-12-27T11:18:31.451Z,283
2016-12-27T11:19:31.556Z,283
2016-12-27T11:20:31.685Z,283
2016-12-27T11:21:31.806Z,283
2016-12-27T11:22:31.911Z,283
2016-12-27T11:23:31.994Z,283
2016-12-27T11:24:32.193Z,282
2016-12-27T11:25:32.323Z,283
2016-12-27T11:26:32.445Z,282
2016-12-27T11:27:32.612Z,282
2016-12-27T11:28:32.733Z,283
2016-12-27T11:29:32.847Z,282
2016-12-27T11:30:32.981Z,282
2016-12-27T11:31:33.072Z,283
2016-12-27T11:32:33.159Z,283
2016-12-27T11:33:33.236Z,283
2016-12-27T11:34:33.378Z,283
2016-12-27T11:35:33.460Z,282
2016-12-27T11:36:33.622Z,283
2016-12-27T11:37:33.760Z,283
2016-12-27T11:38:33.861Z,283
2016-12-27T11:39:34.014Z,282
2016-12-27T11:40:34.164Z,283
2016-12-27T11:41:34.261Z,283
2016-12-27T11:42:34.344Z,282
2016-12-27T11:43:34.439Z,283
2016-12-27T11:44:34.545Z,283
2016-12-27T11:45:34.666Z,283
2016-12-27T11:46:34.805Z,283
2016-12-27T11:47:34.924Z,283
2016-12-27T11:48:34.991Z,283
2016-12-27T11:49:35.118Z,283
2016-12-27T11:50:35.219Z,283
2016-12-27T11:51:35.308Z,283
2016-12-27T11:52:35.384Z,283
2016-12-27T11:53:35.515Z,283
2016-12-27T11:54:35.672Z,283
2016-12-27T11:55:35.812Z,283
2016-12-27T11:56:36.005Z,283
2016-12-27T11:57:36.089Z,282
2016-12-27T11:58:36.182Z,282
2016-12-27T11:59:36.265Z,283
2016-12-27T12:00:36.430Z,283
2016-12-27T12:01:36.531Z,282
2016-12-27T12:02:36.721Z,283
2016-12-27T12:03:36.833Z,283
2016-12-27T12:04:36.933Z,283
2016-12-27T12:05:37.103Z,283
2016-12-27T12:06:37.217Z,283
2016-12-27T12:07:37.296Z,282
2016-12-27T12:08:37.490Z,283
2016-12-27T12:09:37.589Z,283
2016-12-27T12:10:37.727Z,283
2016-12-27T12:11:37.820Z,283
2016-12-27T12:12:37.945Z,283
2016-12-27T12:13:38.066Z,283
2016-12-27T12:14:38.168Z,284
2016-12-27T12:15:38.347Z,282
2016-12-27T12:16:38.438Z,283
2016-12-27T12:17:38.631Z,283
2016-12-27T12:18:38.792Z,283
2016-12-27T12:19:38.905Z,283
2016-12-27T12:20:39.012Z,283
2016-12-27T12:21:39.167Z,283
2016-12-27T12:22:39.248Z,283
2016-12-27T12:23:39.448Z,283
2016-12-27T12:24:39.601Z,283
2016-12-27T12:25:39.722Z,283
2016-12-27T12:26:39.816Z,283
2016-12-27T12:27:39.929Z,282
2016-12-27T12:28:40.036Z,282
2016-12-27T12:29:40.183Z,283
2016-12-27T12:30:40.312Z,282
2016-12-27T12:31:40.419Z,283
2016-12-27T12:32:40.548Z,283
2016-12-27T12:33:40.669Z,283
2016-12-27T12:34:40.819Z,283
2016-12-27T12:35:41.065Z,282
2016-12-27T12:36:41.229Z,283
2016-12-27T12:37:42.137Z,283
2016-12-27T12:38:42.214Z,282
2016-12-27T12:39:42.341Z,283
2016-12-27T12:40:42.423Z,283
2016-12-27T12:41:42.577Z,283
2016-12-27T12:42:43.549Z,283
2016-12-27T12:43:42.882Z,282
2016-12-27T12:44:43.022Z,283
2016-12-27T12:45:43.111Z,282
2016-12-27T12:46:43.241Z,283
2016-12-27T12:47:43.396Z,283
2016-12-27T12:48:43.483Z,283
2016-12-27T12:49:43.605Z,282
2016-12-27T12:50:43.728Z,283
2016-12-27T12:51:43.870Z,283
2016-12-27T12:52:43.964Z,283
2016-12-27T12:53:44.050Z,283
2016-12-27T12:54:44.172Z,283
2016-12-27T12:55:44.294Z,283
2016-12-27T12:56:44.377Z,283
2016-12-27T12:57:44.523Z,283
2016-12-27T12:58:44.648Z,282
2016-12-27T12:59:44.775Z,283
2016-12-27T13:00:44.915Z,283
2016-12-27T13:01:45.059Z,283
2016-12-27T13:02:45.133Z,283
2016-12-27T13:03:45.250Z,283
2016-12-27T13:04:45.352Z,283
2016-12-27T13:05:45.789Z,282
2016-12-27T13:06:45.947Z,283
2016-12-27T13:07:46.012Z,283
2016-12-27T13:08:46.098Z,283
2016-12-27T13:09:46.196Z,283
2016-12-27T13:10:46.336Z,283
2016-12-27T13:11:46.422Z,282
2016-12-27T13:12:46.511Z,283
2016-12-27T13:13:46.614Z,283
2016-12-27T13:14:46.743Z,283
2016-12-27T13:15:46.871Z,282
2016-12-27T13:16:46.980Z,283
2016-12-27T13:17:47.086Z,283
2016-12-27T13:18:47.183Z,283
2016-12-27T13:19:47.350Z,283
2016-12-27T13:20:47.475Z,283
2016-12-27T13:21:47.576Z,282
2016-12-27T13:22:47.651Z,283
2016-12-27T13:23:47.763Z,283
2016-12-27T13:24:47.927Z,282
2016-12-27T13:25:48.043Z,283
2016-12-27T13:26:48.159Z,283
2016-12-27T13:27:48.237Z,283
2016-12-27T13:28:48.355Z,282
2016-12-27T13:29:48.509Z,283
2016-12-27T13:30:48.608Z,283
2016-12-27T13:31:48.708Z,283
2016-12-27T13:32:48.796Z,283
2016-12-27T13:33:48.971Z,282
2016-12-27T13:34:49.071Z,283
2016-12-27T13:35:49.213Z,282
2016-12-27T13:36:49.339Z,282
2016-12-27T13:37:49.423Z,283
2016-12-27T13:38:49.542Z,283
2016-12-27T13:39:49.634Z,283
2016-12-27T13:40:49.742Z,283
2016-12-27T13:41:49.862Z,282
2016-12-27T13:42:49.935Z,283
2016-12-27T13:43:50.114Z,283
2016-12-27T13:44:50.274Z,282
2016-12-27T13:45:50.366Z,283
2016-12-27T13:46:50.503Z,283
2016-12-27T13:47:50.592Z,282